sensor_id;sensor_type;location;lat;lon;timestamp;P1;durP1;ratioP1;P2;durP2;ratioP2
769;SDS011;368;48.698;9.116;2024-02-14T00:00:41;4.77;;;3.23;;
769;SDS011;368;48.698;9.116;2024-02-14T00:03:09;3.30;;;2.30;;
769;SDS011;368;48.698;9.116;2024-02-14T00:05:35;3.40;;;2.77;;
769;SDS011;368;48.698;9.116;2024-02-14T00:08:03;3.17;;;2.90;;
769;SDS011;368;48.698;9.116;2024-02-14T00:10:30;3.53;;;2.83;;
769;SDS011;368;48.698;9.116;2024-02-14T00:12:56;3.40;;;2.60;;
769;SDS011;368;48.698;9.116;2024-02-14T00:15:23;5.23;;;2.43;;
769;SDS011;368;48.698;9.116;2024-02-14T00:17:52;3.57;;;2.60;;
769;SDS011;368;48.698;9.116;2024-02-14T00:20:19;3.27;;;2.40;;
769;SDS011;368;48.698;9.116;2024-02-14T00:22:46;2.97;;;2.13;;
769;SDS011;368;48.698;9.116;2024-02-14T00:25:13;3.30;;;2.60;;
769;SDS011;368;48.698;9.116;2024-02-14T00:27:40;4.50;;;3.10;;
769;SDS011;368;48.698;9.116;2024-02-14T00:30:07;5.07;;;3.33;;
769;SDS011;368;48.698;9.116;2024-02-14T00:32:35;4.90;;;3.90;;
769;SDS011;368;48.698;9.116;2024-02-14T00:35:03;4.97;;;3.37;;
769;SDS011;368;48.698;9.116;2024-02-14T00:37:30;3.40;;;3.10;;
769;SDS011;368;48.698;9.116;2024-02-14T00:40:00;5.27;;;3.30;;
769;SDS011;368;48.698;9.116;2024-02-14T00:42:27;6.87;;;3.70;;
769;SDS011;368;48.698;9.116;2024-02-14T00:44:54;3.47;;;2.83;;
769;SDS011;368;48.698;9.116;2024-02-14T00:47:21;5.70;;;3.53;;
769;SDS011;368;48.698;9.116;2024-02-14T00:49:47;4.90;;;3.77;;
769;SDS011;368;48.698;9.116;2024-02-14T00:52:15;4.60;;;3.67;;
769;SDS011;368;48.698;9.116;2024-02-14T00:54:42;7.20;;;3.80;;
769;SDS011;368;48.698;9.116;2024-02-14T00:57:09;4.57;;;3.80;;
769;SDS011;368;48.698;9.116;2024-02-14T00:59:36;6.10;;;3.97;;
769;SDS011;368;48.698;9.116;2024-02-14T01:02:03;4.00;;;3.60;;
769;SDS011;368;48.698;9.116;2024-02-14T01:04:30;4.87;;;3.70;;
769;SDS011;368;48.698;9.116;2024-02-14T01:06:57;5.23;;;3.77;;
769;SDS011;368;48.698;9.116;2024-02-14T01:09:25;4.10;;;3.70;;
769;SDS011;368;48.698;9.116;2024-02-14T01:11:52;10.20;;;4.20;;
769;SDS011;368;48.698;9.116;2024-02-14T01:14:19;3.80;;;3.30;;
769;SDS011;368;48.698;9.116;2024-02-14T01:16:46;4.50;;;3.20;;
769;SDS011;368;48.698;9.116;2024-02-14T01:19:13;5.70;;;4.20;;
769;SDS011;368;48.698;9.116;2024-02-14T01:21:40;3.50;;;3.20;;
769;SDS011;368;48.698;9.116;2024-02-14T01:24:07;6.17;;;3.97;;
769;SDS011;368;48.698;9.116;2024-02-14T01:26:36;3.80;;;3.27;;
769;SDS011;368;48.698;9.116;2024-02-14T01:29:02;4.40;;;3.47;;
769;SDS011;368;48.698;9.116;2024-02-14T01:31:30;4.23;;;3.23;;
769;SDS011;368;48.698;9.116;2024-02-14T01:33:57;4.07;;;3.07;;
769;SDS011;368;48.698;9.116;2024-02-14T01:36:26;4.20;;;3.23;;
769;SDS011;368;48.698;9.116;2024-02-14T01:38:53;3.80;;;3.10;;
769;SDS011;368;48.698;9.116;2024-02-14T01:41:20;12.60;;;4.23;;
769;SDS011;368;48.698;9.116;2024-02-14T01:43:49;4.33;;;3.50;;
769;SDS011;368;48.698;9.116;2024-02-14T01:46:16;4.10;;;3.33;;
769;SDS011;368;48.698;9.116;2024-02-14T01:48:43;6.57;;;3.63;;
769;SDS011;368;48.698;9.116;2024-02-14T01:51:11;5.43;;;3.80;;
769;SDS011;368;48.698;9.116;2024-02-14T01:53:39;3.97;;;3.57;;
769;SDS011;368;48.698;9.116;2024-02-14T01:56:07;5.30;;;3.77;;
769;SDS011;368;48.698;9.116;2024-02-14T01:58:34;3.30;;;3.00;;
769;SDS011;368;48.698;9.116;2024-02-14T02:01:04;8.47;;;3.77;;
769;SDS011;368;48.698;9.116;2024-02-14T02:03:31;3.50;;;3.17;;
769;SDS011;368;48.698;9.116;2024-02-14T02:06:00;5.37;;;3.70;;
769;SDS011;368;48.698;9.116;2024-02-14T02:08:27;5.13;;;3.70;;
769;SDS011;368;48.698;9.116;2024-02-14T02:10:54;5.10;;;3.40;;
769;SDS011;368;48.698;9.116;2024-02-14T02:13:21;6.20;;;5.60;;
769;SDS011;368;48.698;9.116;2024-02-14T02:15:48;6.00;;;5.40;;
769;SDS011;368;48.698;9.116;2024-02-14T02:18:16;7.10;;;5.00;;
769;SDS011;368;48.698;9.116;2024-02-14T02:20:43;5.50;;;3.73;;
769;SDS011;368;48.698;9.116;2024-02-14T02:23:11;4.17;;;3.50;;
769;SDS011;368;48.698;9.116;2024-02-14T02:25:40;4.57;;;3.43;;
769;SDS011;368;48.698;9.116;2024-02-14T02:28:07;4.90;;;4.00;;
769;SDS011;368;48.698;9.116;2024-02-14T02:30:34;6.07;;;3.93;;
769;SDS011;368;48.698;9.116;2024-02-14T02:33:01;6.40;;;3.90;;
769;SDS011;368;48.698;9.116;2024-02-14T02:35:29;4.00;;;3.70;;
769;SDS011;368;48.698;9.116;2024-02-14T02:37:56;8.17;;;5.20;;
769;SDS011;368;48.698;9.116;2024-02-14T02:40:24;5.97;;;3.90;;
769;SDS011;368;48.698;9.116;2024-02-14T02:42:52;5.63;;;3.47;;
769;SDS011;368;48.698;9.116;2024-02-14T02:45:19;4.50;;;3.50;;
769;SDS011;368;48.698;9.116;2024-02-14T02:47:45;3.53;;;3.23;;
769;SDS011;368;48.698;9.116;2024-02-14T02:50:13;5.37;;;4.43;;
769;SDS011;368;48.698;9.116;2024-02-14T02:52:39;5.47;;;3.80;;
769;SDS011;368;48.698;9.116;2024-02-14T02:55:06;5.80;;;4.40;;
769;SDS011;368;48.698;9.116;2024-02-14T02:57:35;4.80;;;4.40;;
769;SDS011;368;48.698;9.116;2024-02-14T03:00:04;4.97;;;3.57;;
769;SDS011;368;48.698;9.116;2024-02-14T03:02:37;7.00;;;4.87;;
769;SDS011;368;48.698;9.116;2024-02-14T03:05:06;6.10;;;4.60;;
769;SDS011;368;48.698;9.116;2024-02-14T03:07:35;4.57;;;3.83;;
769;SDS011;368;48.698;9.116;2024-02-14T03:10:03;6.40;;;3.87;;
769;SDS011;368;48.698;9.116;2024-02-14T03:12:30;3.93;;;3.40;;
769;SDS011;368;48.698;9.116;2024-02-14T03:14:59;4.50;;;3.57;;
769;SDS011;368;48.698;9.116;2024-02-14T03:17:25;4.27;;;3.87;;
769;SDS011;368;48.698;9.116;2024-02-14T03:19:53;4.23;;;3.80;;
769;SDS011;368;48.698;9.116;2024-02-14T03:22:21;9.23;;;4.37;;
769;SDS011;368;48.698;9.116;2024-02-14T03:24:48;4.77;;;3.60;;
769;SDS011;368;48.698;9.116;2024-02-14T03:27:15;4.67;;;3.27;;
769;SDS011;368;48.698;9.116;2024-02-14T03:29:42;4.30;;;2.93;;
769;SDS011;368;48.698;9.116;2024-02-14T03:32:10;4.83;;;3.20;;
769;SDS011;368;48.698;9.116;2024-02-14T03:34:37;2.77;;;2.47;;
769;SDS011;368;48.698;9.116;2024-02-14T03:37:05;2.97;;;2.73;;
769;SDS011;368;48.698;9.116;2024-02-14T03:39:32;6.20;;;4.10;;
769;SDS011;368;48.698;9.116;2024-02-14T03:41:58;3.83;;;3.23;;
769;SDS011;368;48.698;9.116;2024-02-14T03:44:27;4.30;;;3.00;;
769;SDS011;368;48.698;9.116;2024-02-14T03:46:54;4.50;;;3.13;;
769;SDS011;368;48.698;9.116;2024-02-14T03:49:22;6.40;;;3.87;;
769;SDS011;368;48.698;9.116;2024-02-14T03:51:50;5.63;;;3.30;;
769;SDS011;368;48.698;9.116;2024-02-14T03:54:19;6.00;;;3.70;;
769;SDS011;368;48.698;9.116;2024-02-14T03:56:46;5.83;;;3.50;;
769;SDS011;368;48.698;9.116;2024-02-14T03:59:14;4.47;;;4.07;;
769;SDS011;368;48.698;9.116;2024-02-14T04:01:46;5.03;;;2.87;;
769;SDS011;368;48.698;9.116;2024-02-14T04:04:12;3.30;;;2.87;;
769;SDS011;368;48.698;9.116;2024-02-14T04:06:40;6.47;;;3.80;;
769;SDS011;368;48.698;9.116;2024-02-14T04:09:10;5.40;;;3.50;;
769;SDS011;368;48.698;9.116;2024-02-14T04:11:37;5.67;;;3.80;;
769;SDS011;368;48.698;9.116;2024-02-14T04:14:04;5.50;;;3.30;;
769;SDS011;368;48.698;9.116;2024-02-14T04:16:30;3.83;;;3.00;;
769;SDS011;368;48.698;9.116;2024-02-14T04:18:57;9.20;;;3.33;;
769;SDS011;368;48.698;9.116;2024-02-14T04:21:24;6.50;;;3.77;;
769;SDS011;368;48.698;9.116;2024-02-14T04:23:52;4.10;;;3.10;;
769;SDS011;368;48.698;9.116;2024-02-14T04:26:19;3.50;;;3.20;;
769;SDS011;368;48.698;9.116;2024-02-14T04:28:46;3.50;;;3.10;;
769;SDS011;368;48.698;9.116;2024-02-14T04:31:13;4.43;;;3.43;;
769;SDS011;368;48.698;9.116;2024-02-14T04:33:41;5.30;;;2.87;;
769;SDS011;368;48.698;9.116;2024-02-14T04:36:08;4.10;;;3.70;;
769;SDS011;368;48.698;9.116;2024-02-14T04:38:36;4.20;;;2.60;;
769;SDS011;368;48.698;9.116;2024-02-14T04:41:07;5.83;;;3.23;;
769;SDS011;368;48.698;9.116;2024-02-14T04:43:35;3.47;;;2.83;;
769;SDS011;368;48.698;9.116;2024-02-14T04:46:02;3.90;;;3.30;;
769;SDS011;368;48.698;9.116;2024-02-14T04:48:31;3.90;;;2.60;;
769;SDS011;368;48.698;9.116;2024-02-14T04:50:58;5.00;;;3.50;;
769;SDS011;368;48.698;9.116;2024-02-14T04:53:25;3.17;;;2.87;;
769;SDS011;368;48.698;9.116;2024-02-14T04:55:52;4.00;;;3.20;;
769;SDS011;368;48.698;9.116;2024-02-14T04:58:20;3.77;;;3.00;;
769;SDS011;368;48.698;9.116;2024-02-14T05:00:47;5.07;;;4.27;;
769;SDS011;368;48.698;9.116;2024-02-14T05:03:14;8.80;;;3.80;;
769;SDS011;368;48.698;9.116;2024-02-14T05:05:42;3.43;;;2.67;;
769;SDS011;368;48.698;9.116;2024-02-14T05:08:09;4.70;;;3.30;;
769;SDS011;368;48.698;9.116;2024-02-14T05:10:36;4.13;;;3.50;;
769;SDS011;368;48.698;9.116;2024-02-14T05:13:03;4.10;;;3.07;;
769;SDS011;368;48.698;9.116;2024-02-14T05:15:31;4.37;;;2.97;;
769;SDS011;368;48.698;9.116;2024-02-14T05:18:00;8.20;;;4.53;;
769;SDS011;368;48.698;9.116;2024-02-14T05:20:26;3.13;;;2.83;;
769;SDS011;368;48.698;9.116;2024-02-14T05:22:53;4.23;;;3.30;;
769;SDS011;368;48.698;9.116;2024-02-14T05:25:20;4.87;;;2.90;;
769;SDS011;368;48.698;9.116;2024-02-14T05:27:47;5.73;;;2.90;;
769;SDS011;368;48.698;9.116;2024-02-14T05:30:14;4.27;;;2.60;;
769;SDS011;368;48.698;9.116;2024-02-14T05:32:42;2.80;;;2.60;;
769;SDS011;368;48.698;9.116;2024-02-14T05:35:09;4.80;;;2.97;;
769;SDS011;368;48.698;9.116;2024-02-14T05:37:36;2.70;;;2.50;;
769;SDS011;368;48.698;9.116;2024-02-14T05:40:03;5.93;;;3.23;;
769;SDS011;368;48.698;9.116;2024-02-14T05:42:32;2.63;;;2.37;;
769;SDS011;368;48.698;9.116;2024-02-14T05:45:00;2.63;;;2.43;;
769;SDS011;368;48.698;9.116;2024-02-14T05:47:28;3.57;;;2.70;;
769;SDS011;368;48.698;9.116;2024-02-14T05:49:57;4.03;;;2.57;;
769;SDS011;368;48.698;9.116;2024-02-14T05:52:24;5.03;;;2.70;;
769;SDS011;368;48.698;9.116;2024-02-14T05:54:50;4.20;;;2.73;;
769;SDS011;368;48.698;9.116;2024-02-14T05:57:17;4.50;;;3.00;;
769;SDS011;368;48.698;9.116;2024-02-14T05:59:44;9.50;;;4.70;;
769;SDS011;368;48.698;9.116;2024-02-14T06:02:11;12.67;;;7.10;;
769;SDS011;368;48.698;9.116;2024-02-14T06:04:37;7.73;;;4.73;;
769;SDS011;368;48.698;9.116;2024-02-14T06:07:05;6.23;;;4.30;;
769;SDS011;368;48.698;9.116;2024-02-14T06:09:35;5.57;;;4.10;;
769;SDS011;368;48.698;9.116;2024-02-14T06:12:02;4.30;;;3.90;;
769;SDS011;368;48.698;9.116;2024-02-14T06:14:29;6.67;;;4.00;;
769;SDS011;368;48.698;9.116;2024-02-14T06:16:59;9.23;;;4.60;;
769;SDS011;368;48.698;9.116;2024-02-14T06:19:25;5.73;;;5.03;;
769;SDS011;368;48.698;9.116;2024-02-14T06:21:53;9.37;;;4.90;;
769;SDS011;368;48.698;9.116;2024-02-14T06:24:21;5.13;;;4.63;;
769;SDS011;368;48.698;9.116;2024-02-14T06:26:48;4.73;;;4.23;;
769;SDS011;368;48.698;9.116;2024-02-14T06:29:15;3.73;;;2.80;;
769;SDS011;368;48.698;9.116;2024-02-14T06:31:42;3.20;;;2.90;;
769;SDS011;368;48.698;9.116;2024-02-14T06:34:09;3.70;;;3.30;;
769;SDS011;368;48.698;9.116;2024-02-14T06:36:36;2.83;;;2.63;;
769;SDS011;368;48.698;9.116;2024-02-14T06:39:02;5.40;;;3.37;;
769;SDS011;368;48.698;9.116;2024-02-14T06:41:34;5.73;;;4.50;;
769;SDS011;368;48.698;9.116;2024-02-14T06:44:00;7.07;;;5.40;;
769;SDS011;368;48.698;9.116;2024-02-14T06:46:27;3.87;;;3.37;;
769;SDS011;368;48.698;9.116;2024-02-14T06:48:54;11.00;;;9.80;;
769;SDS011;368;48.698;9.116;2024-02-14T06:51:21;9.40;;;7.93;;
769;SDS011;368;48.698;9.116;2024-02-14T06:53:48;5.87;;;4.67;;
769;SDS011;368;48.698;9.116;2024-02-14T06:56:15;4.10;;;3.20;;
769;SDS011;368;48.698;9.116;2024-02-14T06:58:43;6.23;;;2.77;;
769;SDS011;368;48.698;9.116;2024-02-14T07:01:11;4.70;;;3.80;;
769;SDS011;368;48.698;9.116;2024-02-14T07:03:40;6.70;;;4.30;;
769;SDS011;368;48.698;9.116;2024-02-14T07:06:07;3.70;;;2.63;;
769;SDS011;368;48.698;9.116;2024-02-14T07:08:33;3.23;;;2.30;;
769;SDS011;368;48.698;9.116;2024-02-14T07:11:00;3.93;;;2.40;;
769;SDS011;368;48.698;9.116;2024-02-14T07:13:27;5.17;;;3.43;;
769;SDS011;368;48.698;9.116;2024-02-14T07:15:55;6.63;;;3.17;;
769;SDS011;368;48.698;9.116;2024-02-14T07:18:22;12.53;;;5.57;;
769;SDS011;368;48.698;9.116;2024-02-14T07:20:49;18.23;;;6.80;;
769;SDS011;368;48.698;9.116;2024-02-14T07:23:16;14.90;;;6.17;;
769;SDS011;368;48.698;9.116;2024-02-14T07:25:43;34.33;;;10.90;;
769;SDS011;368;48.698;9.116;2024-02-14T07:28:10;38.50;;;15.47;;
769;SDS011;368;48.698;9.116;2024-02-14T07:30:36;22.23;;;9.63;;
769;SDS011;368;48.698;9.116;2024-02-14T07:33:05;24.07;;;12.10;;
769;SDS011;368;48.698;9.116;2024-02-14T07:35:33;15.13;;;9.07;;
769;SDS011;368;48.698;9.116;2024-02-14T07:37:59;12.47;;;7.93;;
769;SDS011;368;48.698;9.116;2024-02-14T07:40:26;49.40;;;29.53;;
769;SDS011;368;48.698;9.116;2024-02-14T07:42:56;22.07;;;15.10;;
769;SDS011;368;48.698;9.116;2024-02-14T07:45:22;25.47;;;19.13;;
769;SDS011;368;48.698;9.116;2024-02-14T07:47:49;16.23;;;11.73;;
769;SDS011;368;48.698;9.116;2024-02-14T07:50:18;11.70;;;5.43;;
769;SDS011;368;48.698;9.116;2024-02-14T07:52:45;7.23;;;6.53;;
769;SDS011;368;48.698;9.116;2024-02-14T07:55:13;4.63;;;4.17;;
769;SDS011;368;48.698;9.116;2024-02-14T07:57:40;4.00;;;3.40;;
769;SDS011;368;48.698;9.116;2024-02-14T08:00:08;4.20;;;2.30;;
769;SDS011;368;48.698;9.116;2024-02-14T08:02:35;4.00;;;1.90;;
769;SDS011;368;48.698;9.116;2024-02-14T08:05:02;2.63;;;2.03;;
769;SDS011;368;48.698;9.116;2024-02-14T08:07:32;1.90;;;1.70;;
769;SDS011;368;48.698;9.116;2024-02-14T08:09:59;2.90;;;2.00;;
769;SDS011;368;48.698;9.116;2024-02-14T08:12:26;1.50;;;1.40;;
769;SDS011;368;48.698;9.116;2024-02-14T08:14:53;2.63;;;1.70;;
769;SDS011;368;48.698;9.116;2024-02-14T08:17:19;3.60;;;2.10;;
769;SDS011;368;48.698;9.116;2024-02-14T08:19:46;2.20;;;1.60;;
769;SDS011;368;48.698;9.116;2024-02-14T08:22:14;1.80;;;1.50;;
769;SDS011;368;48.698;9.116;2024-02-14T08:24:42;2.20;;;1.47;;
769;SDS011;368;48.698;9.116;2024-02-14T08:27:08;2.80;;;1.90;;
769;SDS011;368;48.698;9.116;2024-02-14T08:29:35;2.90;;;1.83;;
769;SDS011;368;48.698;9.116;2024-02-14T08:32:02;1.90;;;1.80;;
769;SDS011;368;48.698;9.116;2024-02-14T08:34:30;3.40;;;1.90;;
769;SDS011;368;48.698;9.116;2024-02-14T08:36:56;5.30;;;2.00;;
769;SDS011;368;48.698;9.116;2024-02-14T08:39:23;4.80;;;2.33;;
769;SDS011;368;48.698;9.116;2024-02-14T08:41:52;1.57;;;1.40;;
769;SDS011;368;48.698;9.116;2024-02-14T08:44:19;4.60;;;1.73;;
769;SDS011;368;48.698;9.116;2024-02-14T08:46:46;2.90;;;1.80;;
769;SDS011;368;48.698;9.116;2024-02-14T08:49:13;4.27;;;2.10;;
769;SDS011;368;48.698;9.116;2024-02-14T08:51:40;2.67;;;1.77;;
769;SDS011;368;48.698;9.116;2024-02-14T08:54:09;4.20;;;2.27;;
769;SDS011;368;48.698;9.116;2024-02-14T08:56:36;3.30;;;2.13;;
769;SDS011;368;48.698;9.116;2024-02-14T08:59:04;3.00;;;2.27;;
769;SDS011;368;48.698;9.116;2024-02-14T09:01:31;5.33;;;2.27;;
769;SDS011;368;48.698;9.116;2024-02-14T09:03:59;5.30;;;2.17;;
769;SDS011;368;48.698;9.116;2024-02-14T09:06:26;2.40;;;1.90;;
769;SDS011;368;48.698;9.116;2024-02-14T09:08:52;2.23;;;1.80;;
769;SDS011;368;48.698;9.116;2024-02-14T09:11:19;3.10;;;2.03;;
769;SDS011;368;48.698;9.116;2024-02-14T09:13:47;4.33;;;1.83;;
769;SDS011;368;48.698;9.116;2024-02-14T09:16:17;2.40;;;1.67;;
769;SDS011;368;48.698;9.116;2024-02-14T09:18:44;1.87;;;1.30;;
769;SDS011;368;48.698;9.116;2024-02-14T09:21:12;4.27;;;1.83;;
769;SDS011;368;48.698;9.116;2024-02-14T09:23:40;3.20;;;1.90;;
769;SDS011;368;48.698;9.116;2024-02-14T09:26:07;2.30;;;1.87;;
769;SDS011;368;48.698;9.116;2024-02-14T09:28:34;1.70;;;1.53;;
769;SDS011;368;48.698;9.116;2024-02-14T09:31:01;2.10;;;1.60;;
769;SDS011;368;48.698;9.116;2024-02-14T09:33:30;2.33;;;1.60;;
769;SDS011;368;48.698;9.116;2024-02-14T09:35:57;5.40;;;1.73;;
769;SDS011;368;48.698;9.116;2024-02-14T09:38:24;2.40;;;1.60;;
769;SDS011;368;48.698;9.116;2024-02-14T09:40:51;5.70;;;2.50;;
769;SDS011;368;48.698;9.116;2024-02-14T09:43:22;3.33;;;1.73;;
769;SDS011;368;48.698;9.116;2024-02-14T09:45:54;3.03;;;2.20;;
769;SDS011;368;48.698;9.116;2024-02-14T09:48:21;4.00;;;1.67;;
769;SDS011;368;48.698;9.116;2024-02-14T09:50:50;3.30;;;2.47;;
769;SDS011;368;48.698;9.116;2024-02-14T09:53:20;2.67;;;2.37;;
769;SDS011;368;48.698;9.116;2024-02-14T09:55:47;1.73;;;1.63;;
769;SDS011;368;48.698;9.116;2024-02-14T09:58:15;2.83;;;1.60;;
769;SDS011;368;48.698;9.116;2024-02-14T10:00:43;2.17;;;1.50;;
769;SDS011;368;48.698;9.116;2024-02-14T10:03:10;2.70;;;1.07;;
769;SDS011;368;48.698;9.116;2024-02-14T10:05:37;2.83;;;1.57;;
769;SDS011;368;48.698;9.116;2024-02-14T10:08:05;1.93;;;1.10;;
769;SDS011;368;48.698;9.116;2024-02-14T10:10:34;2.10;;;1.07;;
769;SDS011;368;48.698;9.116;2024-02-14T10:13:03;1.53;;;1.10;;
769;SDS011;368;48.698;9.116;2024-02-14T10:15:31;1.27;;;1.00;;
769;SDS011;368;48.698;9.116;2024-02-14T10:17:57;1.17;;;1.07;;
769;SDS011;368;48.698;9.116;2024-02-14T10:20:24;1.07;;;0.97;;
769;SDS011;368;48.698;9.116;2024-02-14T10:22:53;2.23;;;1.27;;
769;SDS011;368;48.698;9.116;2024-02-14T10:25:29;1.80;;;0.97;;
769;SDS011;368;48.698;9.116;2024-02-14T10:27:56;1.80;;;1.27;;
769;SDS011;368;48.698;9.116;2024-02-14T10:30:23;2.63;;;1.27;;
769;SDS011;368;48.698;9.116;2024-02-14T10:32:50;1.20;;;0.93;;
769;SDS011;368;48.698;9.116;2024-02-14T10:35:17;2.30;;;1.47;;
769;SDS011;368;48.698;9.116;2024-02-14T10:37:46;1.27;;;0.97;;
769;SDS011;368;48.698;9.116;2024-02-14T10:40:14;2.33;;;1.20;;
769;SDS011;368;48.698;9.116;2024-02-14T10:42:43;1.93;;;1.30;;
769;SDS011;368;48.698;9.116;2024-02-14T10:45:10;1.17;;;1.00;;
769;SDS011;368;48.698;9.116;2024-02-14T10:47:38;1.10;;;0.90;;
769;SDS011;368;48.698;9.116;2024-02-14T10:50:09;1.50;;;0.93;;
769;SDS011;368;48.698;9.116;2024-02-14T10:52:39;4.30;;;1.10;;
769;SDS011;368;48.698;9.116;2024-02-14T10:55:10;2.00;;;1.07;;
769;SDS011;368;48.698;9.116;2024-02-14T10:57:37;1.40;;;1.00;;
769;SDS011;368;48.698;9.116;2024-02-14T11:00:08;1.27;;;1.10;;
769;SDS011;368;48.698;9.116;2024-02-14T11:02:38;2.80;;;1.27;;
769;SDS011;368;48.698;9.116;2024-02-14T11:05:07;1.50;;;1.13;;
769;SDS011;368;48.698;9.116;2024-02-14T11:07:43;1.27;;;0.87;;
769;SDS011;368;48.698;9.116;2024-02-14T11:10:12;2.17;;;0.87;;
769;SDS011;368;48.698;9.116;2024-02-14T11:12:40;1.47;;;1.00;;
769;SDS011;368;48.698;9.116;2024-02-14T11:15:11;1.60;;;1.07;;
769;SDS011;368;48.698;9.116;2024-02-14T11:17:42;2.60;;;1.10;;
769;SDS011;368;48.698;9.116;2024-02-14T11:20:16;2.03;;;1.20;;
769;SDS011;368;48.698;9.116;2024-02-14T11:22:52;3.33;;;0.77;;
769;SDS011;368;48.698;9.116;2024-02-14T11:25:21;1.30;;;0.90;;
769;SDS011;368;48.698;9.116;2024-02-14T11:27:50;1.27;;;0.97;;
769;SDS011;368;48.698;9.116;2024-02-14T11:30:27;2.07;;;1.10;;
769;SDS011;368;48.698;9.116;2024-02-14T11:32:55;1.70;;;1.47;;
769;SDS011;368;48.698;9.116;2024-02-14T11:35:39;1.30;;;1.00;;
769;SDS011;368;48.698;9.116;2024-02-14T11:38:06;1.53;;;0.73;;
769;SDS011;368;48.698;9.116;2024-02-14T11:40:34;1.60;;;1.03;;
769;SDS011;368;48.698;9.116;2024-02-14T11:43:01;1.17;;;0.90;;
769;SDS011;368;48.698;9.116;2024-02-14T11:45:29;1.30;;;1.07;;
769;SDS011;368;48.698;9.116;2024-02-14T11:47:56;1.07;;;0.70;;
769;SDS011;368;48.698;9.116;2024-02-14T11:50:22;1.57;;;1.00;;
769;SDS011;368;48.698;9.116;2024-02-14T11:52:49;0.67;;;0.53;;
769;SDS011;368;48.698;9.116;2024-02-14T11:55:18;1.13;;;1.00;;
769;SDS011;368;48.698;9.116;2024-02-14T11:57:53;2.73;;;1.30;;
769;SDS011;368;48.698;9.116;2024-02-14T12:00:19;1.77;;;1.40;;
769;SDS011;368;48.698;9.116;2024-02-14T12:02:48;1.50;;;0.80;;
769;SDS011;368;48.698;9.116;2024-02-14T12:05:15;5.00;;;2.00;;
769;SDS011;368;48.698;9.116;2024-02-14T12:07:43;1.77;;;0.73;;
769;SDS011;368;48.698;9.116;2024-02-14T12:10:10;2.80;;;0.90;;
769;SDS011;368;48.698;9.116;2024-02-14T12:12:37;3.17;;;1.10;;
769;SDS011;368;48.698;9.116;2024-02-14T12:15:04;1.10;;;0.73;;
769;SDS011;368;48.698;9.116;2024-02-14T12:17:36;0.60;;;0.50;;
769;SDS011;368;48.698;9.116;2024-02-14T12:20:09;2.07;;;0.70;;
769;SDS011;368;48.698;9.116;2024-02-14T12:22:38;1.00;;;0.57;;
769;SDS011;368;48.698;9.116;2024-02-14T12:25:05;0.83;;;0.47;;
769;SDS011;368;48.698;9.116;2024-02-14T12:27:33;1.67;;;0.70;;
769;SDS011;368;48.698;9.116;2024-02-14T12:30:03;1.53;;;1.10;;
769;SDS011;368;48.698;9.116;2024-02-14T12:32:30;2.50;;;0.63;;
769;SDS011;368;48.698;9.116;2024-02-14T12:34:58;0.70;;;0.50;;
769;SDS011;368;48.698;9.116;2024-02-14T12:37:26;2.03;;;1.50;;
769;SDS011;368;48.698;9.116;2024-02-14T12:39:53;2.00;;;1.07;;
769;SDS011;368;48.698;9.116;2024-02-14T12:42:20;1.60;;;0.70;;
769;SDS011;368;48.698;9.116;2024-02-14T12:44:50;1.20;;;0.80;;
769;SDS011;368;48.698;9.116;2024-02-14T12:47:17;0.80;;;0.50;;
769;SDS011;368;48.698;9.116;2024-02-14T12:49:46;1.33;;;0.50;;
769;SDS011;368;48.698;9.116;2024-02-14T12:52:14;0.93;;;0.40;;
769;SDS011;368;48.698;9.116;2024-02-14T12:54:42;2.23;;;0.90;;
769;SDS011;368;48.698;9.116;2024-02-14T12:57:09;0.73;;;0.50;;
769;SDS011;368;48.698;9.116;2024-02-14T12:59:36;1.03;;;0.50;;
769;SDS011;368;48.698;9.116;2024-02-14T13:02:04;0.80;;;0.53;;
769;SDS011;368;48.698;9.116;2024-02-14T13:04:32;0.50;;;0.40;;
769;SDS011;368;48.698;9.116;2024-02-14T13:06:59;1.80;;;0.83;;
769;SDS011;368;48.698;9.116;2024-02-14T13:09:27;1.33;;;0.93;;
769;SDS011;368;48.698;9.116;2024-02-14T13:11:55;2.63;;;2.43;;
769;SDS011;368;48.698;9.116;2024-02-14T13:14:22;1.00;;;0.50;;
769;SDS011;368;48.698;9.116;2024-02-14T13:16:49;1.00;;;0.83;;
769;SDS011;368;48.698;9.116;2024-02-14T13:19:16;1.33;;;0.73;;
769;SDS011;368;48.698;9.116;2024-02-14T13:21:43;0.70;;;0.50;;
769;SDS011;368;48.698;9.116;2024-02-14T13:24:11;0.70;;;0.47;;
769;SDS011;368;48.698;9.116;2024-02-14T13:26:39;0.50;;;0.50;;
769;SDS011;368;48.698;9.116;2024-02-14T13:29:07;1.53;;;0.57;;
769;SDS011;368;48.698;9.116;2024-02-14T13:31:34;0.50;;;0.40;;
769;SDS011;368;48.698;9.116;2024-02-14T13:34:01;0.80;;;0.60;;
769;SDS011;368;48.698;9.116;2024-02-14T13:36:28;0.53;;;0.30;;
769;SDS011;368;48.698;9.116;2024-02-14T13:38:56;0.97;;;0.60;;
769;SDS011;368;48.698;9.116;2024-02-14T13:41:23;0.83;;;0.40;;
769;SDS011;368;48.698;9.116;2024-02-14T13:43:50;0.80;;;0.40;;
769;SDS011;368;48.698;9.116;2024-02-14T13:46:18;0.77;;;0.43;;
769;SDS011;368;48.698;9.116;2024-02-14T13:48:45;0.40;;;0.30;;
769;SDS011;368;48.698;9.116;2024-02-14T13:51:12;0.93;;;0.63;;
769;SDS011;368;48.698;9.116;2024-02-14T13:53:39;0.70;;;0.40;;
769;SDS011;368;48.698;9.116;2024-02-14T13:56:06;0.97;;;0.50;;
769;SDS011;368;48.698;9.116;2024-02-14T13:58:33;0.57;;;0.47;;
769;SDS011;368;48.698;9.116;2024-02-14T14:00:59;0.73;;;0.73;;
769;SDS011;368;48.698;9.116;2024-02-14T14:03:27;1.40;;;0.60;;
769;SDS011;368;48.698;9.116;2024-02-14T14:05:55;0.80;;;0.60;;
769;SDS011;368;48.698;9.116;2024-02-14T14:08:22;1.40;;;1.30;;
769;SDS011;368;48.698;9.116;2024-02-14T14:10:49;0.60;;;0.50;;
769;SDS011;368;48.698;9.116;2024-02-14T14:13:15;0.70;;;0.53;;
769;SDS011;368;48.698;9.116;2024-02-14T14:15:42;1.47;;;0.60;;
769;SDS011;368;48.698;9.116;2024-02-14T14:18:09;1.53;;;0.47;;
769;SDS011;368;48.698;9.116;2024-02-14T14:20:38;0.70;;;0.47;;
769;SDS011;368;48.698;9.116;2024-02-14T14:23:05;1.10;;;0.77;;
769;SDS011;368;48.698;9.116;2024-02-14T14:25:34;0.87;;;0.60;;
769;SDS011;368;48.698;9.116;2024-02-14T14:28:02;1.13;;;1.03;;
769;SDS011;368;48.698;9.116;2024-02-14T14:30:29;0.90;;;0.70;;
769;SDS011;368;48.698;9.116;2024-02-14T14:32:56;3.37;;;3.17;;
769;SDS011;368;48.698;9.116;2024-02-14T14:35:23;1.50;;;1.40;;
769;SDS011;368;48.698;9.116;2024-02-14T14:37:51;1.07;;;0.50;;
769;SDS011;368;48.698;9.116;2024-02-14T14:40:19;3.70;;;3.40;;
769;SDS011;368;48.698;9.116;2024-02-14T14:42:46;1.40;;;0.60;;
769;SDS011;368;48.698;9.116;2024-02-14T14:45:13;0.90;;;0.60;;
769;SDS011;368;48.698;9.116;2024-02-14T14:47:41;0.93;;;0.67;;
769;SDS011;368;48.698;9.116;2024-02-14T14:50:08;0.63;;;0.50;;
769;SDS011;368;48.698;9.116;2024-02-14T14:52:37;1.77;;;1.20;;
769;SDS011;368;48.698;9.116;2024-02-14T14:55:06;3.17;;;1.13;;
769;SDS011;368;48.698;9.116;2024-02-14T14:57:33;0.93;;;0.73;;
769;SDS011;368;48.698;9.116;2024-02-14T15:00:05;0.63;;;0.30;;
769;SDS011;368;48.698;9.116;2024-02-14T15:02:34;1.37;;;0.67;;
769;SDS011;368;48.698;9.116;2024-02-14T15:05:01;1.60;;;0.57;;
769;SDS011;368;48.698;9.116;2024-02-14T15:07:28;0.67;;;0.67;;
769;SDS011;368;48.698;9.116;2024-02-14T15:09:54;0.70;;;0.60;;
769;SDS011;368;48.698;9.116;2024-02-14T15:12:23;4.67;;;2.30;;
769;SDS011;368;48.698;9.116;2024-02-14T15:14:51;1.60;;;1.23;;
769;SDS011;368;48.698;9.116;2024-02-14T15:17:18;1.80;;;1.60;;
769;SDS011;368;48.698;9.116;2024-02-14T15:19:45;4.33;;;3.47;;
769;SDS011;368;48.698;9.116;2024-02-14T15:22:12;4.53;;;3.60;;
769;SDS011;368;48.698;9.116;2024-02-14T15:24:39;2.90;;;1.27;;
769;SDS011;368;48.698;9.116;2024-02-14T15:27:07;2.30;;;0.90;;
769;SDS011;368;48.698;9.116;2024-02-14T15:29:37;1.80;;;1.63;;
769;SDS011;368;48.698;9.116;2024-02-14T15:32:21;0.80;;;0.60;;
769;SDS011;368;48.698;9.116;2024-02-14T15:35:06;1.83;;;1.37;;
769;SDS011;368;48.698;9.116;2024-02-14T15:37:33;2.33;;;2.00;;
769;SDS011;368;48.698;9.116;2024-02-14T15:40:00;1.27;;;1.17;;
769;SDS011;368;48.698;9.116;2024-02-14T15:42:29;1.20;;;1.10;;
769;SDS011;368;48.698;9.116;2024-02-14T15:44:58;1.67;;;1.57;;
769;SDS011;368;48.698;9.116;2024-02-14T15:47:25;12.70;;;9.13;;